createdAt,value
2022-12-18T00:04:33.082Z,62.05
2022-12-18T00:09:40.353Z,63.90
2022-12-18T00:14:42.434Z,68.57
2022-12-18T00:19:44.014Z,67.00
2022-12-18T00:24:45.712Z,67.57
2022-12-18T00:29:49.302Z,62.13
2022-12-18T00:34:50.973Z,58.95
2022-12-18T00:39:52.685Z,65.47
2022-12-18T00:44:55.239Z,51.90
2022-12-18T00:49:56.935Z,59.13
2022-12-18T00:55:03.071Z,47.40
2022-12-18T01:00:57.988Z,56.90
2022-12-18T01:05:59.828Z,57.05
2022-12-18T01:11:02.075Z,52.13
2022-12-18T01:16:04.181Z,49.67
2022-12-18T01:21:10.424Z,56.47
2022-12-18T01:26:18.034Z,54.08
2022-12-18T01:31:22.798Z,55.75
2022-12-18T01:36:26.933Z,49.20
2022-12-18T01:41:50.817Z,57.42
2022-12-18T01:46:52.505Z,59.45
2022-12-18T01:51:54.263Z,55.60
2022-12-18T01:56:55.891Z,56.42
2022-12-18T02:01:58.152Z,54.85
2022-12-18T02:07:18.045Z,54.20
2022-12-18T02:12:23.385Z,53.10
2022-12-18T02:17:37.759Z,52.67
2022-12-18T02:23:26.143Z,54.38
2022-12-18T02:28:34.239Z,51.90
2022-12-18T02:33:41.596Z,49.22
2022-12-18T02:38:46.648Z,48.13
2022-12-18T02:43:56.606Z,49.80
2022-12-18T02:49:19.426Z,50.67
2022-12-18T02:54:27.483Z,53.13
2022-12-18T02:59:40.689Z,48.60
2022-12-18T03:05:07.200Z,44.40
2022-12-18T03:10:14.691Z,41.47
2022-12-18T03:15:30.786Z,40.33
2022-12-18T03:20:44.542Z,44.65
2022-12-18T03:25:53.957Z,44.95
2022-12-18T03:31:01.797Z,43.38
2022-12-18T03:36:04.950Z,45.65
2022-12-18T03:41:43.559Z,40.38
2022-12-18T03:47:40.923Z,40.40
2022-12-18T03:52:58.407Z,38.97
2022-12-18T03:58:02.737Z,36.13
2022-12-18T04:03:15.650Z,44.08
2022-12-18T04:08:23.664Z,39.80
2022-12-18T04:13:38.701Z,42.75
2022-12-18T04:18:45.064Z,38.63
2022-12-18T04:23:48.025Z,41.15
2022-12-18T04:28:49.854Z,33.45
2022-12-18T04:33:51.721Z,40.22
2022-12-18T04:38:53.558Z,36.40
2022-12-18T04:43:56.195Z,37.65
2022-12-18T04:48:57.932Z,38.15
2022-12-18T04:53:59.653Z,38.35
2022-12-18T04:59:01.318Z,40.95
2022-12-18T05:04:03.935Z,36.55
2022-12-18T05:09:05.683Z,35.80
2022-12-18T05:14:07.676Z,41.45
2022-12-18T05:19:09.634Z,36.83
2022-12-18T05:24:11.229Z,36.70
2022-12-18T05:29:13.338Z,38.67
2022-12-18T05:34:15.883Z,38.13
2022-12-18T05:39:17.521Z,40.28
2022-12-18T05:44:19.216Z,38.58
2022-12-18T05:49:20.809Z,41.92
2022-12-18T05:54:22.891Z,36.25
2022-12-18T05:59:24.554Z,42.00
2022-12-18T06:04:28.973Z,40.45
2022-12-18T06:09:30.640Z,42.03
2022-12-18T06:14:32.282Z,40.17
2022-12-18T06:19:33.899Z,41.85
2022-12-18T06:24:35.532Z,39.90
2022-12-18T06:29:37.095Z,39.80
2022-12-18T06:34:38.804Z,38.25
2022-12-18T06:39:40.374Z,38.78
2022-12-18T06:44:41.934Z,34.00
2022-12-18T06:49:44.371Z,34.35
2022-12-18T06:54:46.122Z,33.33
2022-12-18T06:59:47.707Z,33.20
2022-12-18T07:04:49.410Z,35.83
2022-12-18T07:09:51.979Z,34.70
2022-12-18T07:14:53.960Z,35.83
2022-12-18T07:19:55.595Z,39.30
2022-12-18T07:24:57.311Z,33.92
2022-12-18T07:29:58.969Z,32.88
2022-12-18T07:35:00.785Z,33.00
2022-12-18T07:40:02.350Z,33.17
2022-12-18T07:45:04.865Z,32.13
2022-12-18T07:50:07.126Z,29.58
2022-12-18T07:55:09.110Z,28.25
2022-12-18T08:00:11.545Z,27.20
2022-12-18T08:05:16.051Z,25.85
2022-12-18T08:10:18.187Z,24.08
2022-12-18T08:15:19.857Z,23.75
2022-12-18T08:20:21.429Z,24.48
2022-12-18T08:25:23.075Z,23.25
2022-12-18T08:30:24.779Z,20.65
2022-12-18T08:35:27.998Z,22.55
2022-12-18T08:40:32.260Z,22.92
2022-12-18T08:45:35.130Z,19.20
2022-12-18T08:50:36.882Z,21.23
2022-12-18T08:55:38.630Z,23.48
2022-12-18T09:00:40.349Z,19.98
2022-12-18T09:05:42.358Z,18.27
2022-12-18T09:10:49.559Z,19.35
2022-12-18T09:15:54.466Z,17.67
2022-12-18T09:20:56.172Z,16.85
2022-12-18T09:26:00.930Z,21.25
2022-12-18T09:31:08.687Z,17.25
2022-12-18T09:36:13.050Z,21.45
2022-12-18T09:41:19.203Z,20.38
2022-12-18T09:46:28.204Z,20.35
2022-12-18T09:51:37.001Z,18.70
2022-12-18T09:56:42.530Z,18.73
2022-12-18T10:01:44.697Z,18.40
2022-12-18T10:07:09.560Z,18.67
2022-12-18T10:12:33.473Z,18.10
2022-12-18T10:17:51.070Z,21.08
2022-12-18T10:23:06.802Z,19.48
2022-12-18T10:28:13.279Z,20.50
2022-12-18T10:33:18.209Z,17.27
2022-12-18T10:38:20.242Z,18.45
2022-12-18T10:43:29.296Z,18.67
2022-12-18T10:48:32.798Z,19.63
2022-12-18T10:53:37.542Z,18.25
2022-12-18T10:58:40.904Z,18.13
2022-12-18T11:03:45.850Z,20.55
2022-12-18T11:09:20.831Z,17.77
2022-12-18T11:14:47.038Z,20.75
2022-12-18T11:20:08.382Z,18.67
2022-12-18T11:25:32.310Z,17.48
2022-12-18T11:30:37.717Z,17.75
2022-12-18T11:35:55.538Z,20.75
2022-12-18T11:41:02.991Z,20.17
2022-12-18T11:46:19.418Z,20.02
2022-12-18T11:51:34.461Z,19.08
2022-12-18T11:56:37.217Z,17.77
2022-12-18T12:02:05.069Z,21.95
2022-12-18T12:07:25.247Z,19.00
2022-12-18T12:12:29.643Z,19.20
2022-12-18T12:17:50.607Z,21.25
2022-12-18T12:23:24.754Z,19.52
2022-12-18T12:28:50.891Z,22.00
2022-12-18T12:34:30.048Z,21.73
2022-12-18T12:39:38.505Z,20.20
2022-12-18T12:44:45.498Z,19.08
2022-12-18T12:49:51.716Z,19.63
2022-12-18T12:54:54.465Z,17.30
2022-12-18T13:00:11.778Z,21.33
2022-12-18T13:05:44.292Z,20.27
2022-12-18T13:10:46.988Z,20.08
2022-12-18T13:16:07.423Z,18.02
2022-12-18T13:21:26.063Z,19.40
2022-12-18T13:26:28.873Z,19.45
2022-12-18T13:31:40.501Z,19.25
2022-12-18T13:36:42.213Z,18.88
2022-12-18T13:41:48.246Z,21.52
2022-12-18T13:46:52.434Z,23.67
2022-12-18T13:51:56.115Z,24.15
2022-12-18T13:56:57.898Z,21.67
2022-12-18T14:02:06.640Z,17.65
2022-12-18T14:07:13.760Z,20.48
2022-12-18T14:12:44.963Z,21.55
2022-12-18T14:17:47.872Z,20.97
2022-12-18T14:22:50.876Z,20.38
2022-12-18T14:28:15.165Z,20.65
2022-12-18T14:33:19.782Z,18.88
2022-12-18T14:38:38.703Z,22.73
2022-12-18T14:43:43.101Z,19.15
2022-12-18T14:48:48.797Z,20.05
2022-12-18T14:53:57.096Z,24.33
2022-12-18T14:59:01.270Z,20.58
2022-12-18T15:04:05.302Z,21.02
2022-12-18T15:09:24.867Z,19.00
2022-12-18T15:14:41.484Z,20.38
2022-12-18T15:19:45.741Z,18.70
2022-12-18T15:24:47.723Z,20.20
2022-12-18T15:30:23.478Z,19.77
2022-12-18T15:35:26.134Z,18.77
2022-12-18T15:40:27.958Z,22.35
2022-12-18T15:45:29.959Z,23.05
2022-12-18T15:50:34.012Z,20.52
2022-12-18T15:55:57.885Z,20.85
2022-12-18T16:01:02.707Z,21.30
2022-12-18T16:06:04.640Z,22.60
2022-12-18T16:11:06.767Z,23.73
2022-12-18T16:16:12.569Z,21.58
2022-12-18T16:21:16.358Z,23.92
2022-12-18T16:26:18.032Z,20.40
2022-12-18T16:31:20.483Z,21.05
2022-12-18T16:36:22.195Z,22.00
2022-12-18T16:41:32.743Z,21.65
2022-12-18T16:46:35.754Z,24.23
2022-12-18T16:51:37.446Z,23.13
2022-12-18T16:56:39.332Z,22.45
2022-12-18T17:01:41.964Z,23.38
2022-12-18T17:06:45.320Z,24.45
2022-12-18T17:11:47.022Z,26.00
2022-12-18T17:16:57.808Z,27.80
2022-12-18T17:22:10.986Z,22.75
2022-12-18T17:27:12.754Z,24.50
2022-12-18T17:32:14.440Z,25.40
2022-12-18T17:37:16.228Z,21.38
2022-12-18T17:42:17.944Z,24.77
2022-12-18T17:47:20.117Z,24.23
2022-12-18T17:52:21.735Z,25.40
2022-12-18T17:57:23.382Z,23.77
2022-12-18T18:02:25.992Z,23.58
2022-12-18T18:07:28.382Z,27.27
2022-12-18T18:12:48.725Z,22.80
2022-12-18T18:17:50.451Z,27.35
2022-12-18T18:22:52.105Z,26.40
2022-12-18T18:27:53.893Z,25.10
2022-12-18T18:32:55.706Z,26.45
2022-12-18T18:37:57.400Z,24.02
2022-12-18T18:42:59.085Z,30.58
2022-12-18T18:48:00.915Z,27.27
2022-12-18T18:53:02.489Z,25.30
2022-12-18T18:58:04.200Z,26.27
2022-12-18T19:03:07.657Z,29.05
2022-12-18T19:08:10.487Z,28.63
2022-12-18T19:13:24.500Z,26.55
2022-12-18T19:18:27.102Z,26.80
2022-12-18T19:23:30.182Z,28.23
2022-12-18T19:28:31.919Z,27.85
2022-12-18T19:33:45.403Z,25.10
2022-12-18T19:38:48.349Z,27.65
2022-12-18T19:43:51.864Z,45.35
2022-12-18T19:48:56.515Z,25.90
2022-12-18T19:54:01.453Z,27.00
2022-12-18T19:59:04.686Z,26.58
2022-12-18T20:04:06.508Z,26.75
2022-12-18T20:09:10.079Z,30.42
2022-12-18T20:14:13.076Z,25.17
2022-12-18T20:19:16.785Z,25.50
2022-12-18T20:24:19.185Z,28.20
2022-12-18T20:29:21.341Z,27.95
2022-12-18T20:34:23.138Z,25.75
2022-12-18T20:39:27.487Z,27.88
2022-12-18T20:44:32.816Z,27.40
2022-12-18T20:49:34.594Z,27.00
2022-12-18T20:54:36.298Z,27.25
2022-12-18T20:59:39.903Z,26.38
2022-12-18T21:04:43.727Z,27.20
2022-12-18T21:09:45.300Z,28.63
2022-12-18T21:14:46.912Z,27.55
2022-12-18T21:19:50.079Z,28.90
2022-12-18T21:24:52.439Z,29.42
2022-12-18T21:29:54.153Z,25.77
2022-12-18T21:34:55.850Z,29.35
2022-12-18T21:39:57.458Z,27.77
2022-12-18T21:44:59.271Z,27.73
2022-12-18T21:50:00.866Z,47.60
2022-12-18T21:55:09.118Z,27.58
2022-12-18T22:00:18.963Z,32.88
2022-12-18T22:05:21.241Z,28.60
2022-12-18T22:10:22.816Z,30.02
2022-12-18T22:15:24.598Z,25.75
2022-12-18T22:20:26.203Z,27.08
2022-12-18T22:25:28.502Z,28.38
2022-12-18T22:30:30.321Z,28.50
2022-12-18T22:35:32.419Z,27.63
2022-12-18T22:40:34.173Z,39.72
2022-12-18T22:45:38.379Z,27.45
2022-12-18T22:50:40.844Z,29.63
2022-12-18T22:55:42.548Z,32.05
2022-12-18T23:00:44.149Z,40.42
2022-12-18T23:05:45.834Z,34.08
2022-12-18T23:10:47.599Z,30.27
2022-12-18T23:15:50.694Z,26.95
2022-12-18T23:20:52.420Z,28.40
2022-12-18T23:26:01.958Z,29.45
2022-12-18T23:31:12.866Z,27.13
2022-12-18T23:36:17.800Z,28.02
2022-12-18T23:41:21.915Z,29.08
2022-12-18T23:46:33.123Z,27.45
2022-12-18T23:51:34.897Z,27.17
2022-12-18T23:56:37.890Z,26.67
